Time;durP1;ratioP1;P1;durP2;ratioP2;P2;SDS_P1;SDS_P2;PMS_P1;PMS_P2;Temp;Humidity;BMP_temperature;BMP_pressure;BME280_temperature;BME280_humidity;BME280_pressure;Samples;Min_cycle;Max_cycle;Signal;HPM_P1;HPM_P2
2023/04/22 00:01:27;;;;;;;4.63;2.75;;;13.30;78.60;;;;;;5057706;28;20480;-88
2023/04/22 00:03:53;;;;;;;4.68;2.90;;;13.30;78.60;;;;;;5057763;28;20081;-88
2023/04/22 00:06:19;;;;;;;3.88;2.45;;;13.20;78.50;;;;;;5057652;28;20025;-88
2023/04/22 00:08:44;;;;;;;4.53;2.90;;;13.20;78.60;;;;;;5057906;28;20025;-89
2023/04/22 00:11:10;;;;;;;4.28;2.55;;;13.30;78.60;;;;;;5075329;28;20558;-88
2023/04/22 00:13:36;;;;;;;4.32;2.80;;;13.30;78.60;;;;;;5058036;28;20020;-89
2023/04/22 00:16:02;;;;;;;4.28;2.60;;;13.20;78.50;;;;;;5075500;28;20104;-89
2023/04/22 00:18:28;;;;;;;5.38;3.00;;;13.30;78.60;;;;;;5082241;28;20469;-90
2023/04/22 00:20:53;;;;;;;4.45;2.70;;;13.30;78.70;;;;;;5058868;28;20029;-88
2023/04/22 00:23:19;;;;;;;4.82;2.60;;;13.30;78.60;;;;;;5075379;28;20021;-88
2023/04/22 00:25:45;;;;;;;4.60;2.70;;;13.20;78.60;;;;;;5058449;28;20023;-88
2023/04/22 00:28:10;;;;;;;4.35;2.50;;;13.30;78.60;;;;;;5076572;28;20469;-89
2023/04/22 00:30:36;;;;;;;4.32;2.67;;;13.20;78.60;;;;;;5058009;28;20029;-90
2023/04/22 00:33:01;;;;;;;4.65;2.75;;;13.30;78.60;;;;;;5060700;28;20481;-88
2023/04/22 00:35:27;;;;;;;4.43;2.70;;;13.20;78.60;;;;;;5059145;28;20070;-88
2023/04/22 00:37:52;;;;;;;4.53;2.90;;;13.20;78.60;;;;;;5057728;28;20016;-88
2023/04/22 00:40:18;;;;;;;4.43;2.72;;;13.20;78.60;;;;;;5057280;28;20057;-88
2023/04/22 00:42:45;;;;;;;4.82;2.85;;;13.20;79.20;;;;;;5057963;28;20021;-88
2023/04/22 00:45:13;;;;;;;4.03;2.65;;;13.20;78.60;;;;;;5058775;28;20029;-88
2023/04/22 00:47:40;;;;;;;4.88;2.60;;;13.20;78.60;;;;;;5057405;28;20763;-88
2023/04/22 00:50:06;;;;;;;5.20;2.67;;;13.20;78.60;;;;;;5058005;28;20025;-87
2023/04/22 00:52:32;;;;;;;5.30;2.70;;;13.20;78.60;;;;;;5057558;28;20120;-88
2023/04/22 00:54:57;;;;;;;4.10;2.65;;;13.20;78.60;;;;;;5058037;28;20040;-88
2023/04/22 00:57:23;;;;;;;4.78;3.00;;;13.20;78.60;;;;;;5058092;28;20054;-88
2023/04/22 00:59:49;;;;;;;4.88;2.80;;;13.20;78.60;;;;;;5058151;28;20027;-88
2023/04/22 01:02:14;;;;;;;4.93;2.80;;;13.20;78.60;;;;;;5057740;28;20385;-88
2023/04/22 01:04:40;;;;;;;6.57;3.00;;;13.20;78.60;;;;;;5056006;28;20021;-88
2023/04/22 01:07:06;;;;;;;4.50;2.75;;;13.20;78.60;;;;;;5057530;28;20636;-88
2023/04/22 01:09:32;;;;;;;4.50;2.97;;;13.20;78.70;;;;;;5057589;28;20552;-88
2023/04/22 01:11:57;;;;;;;4.78;2.70;;;13.20;79.20;;;;;;5056959;28;20075;-89
2023/04/22 01:14:23;;;;;;;5.53;2.83;;;13.20;78.70;;;;;;5065295;28;20029;-89
2023/04/22 01:16:50;;;;;;;4.72;2.78;;;13.20;78.70;;;;;;5056720;28;20109;-89
2023/04/22 01:19:16;;;;;;;4.97;2.72;;;13.20;78.70;;;;;;5056247;28;20112;-88
2023/04/22 01:21:44;;;;;;;4.70;2.90;;;13.20;78.70;;;;;;5049166;22;20048;-85
2023/04/22 01:24:09;;;;;;;4.80;2.88;;;13.20;78.70;;;;;;5016592;28;20025;-85
2023/04/22 01:26:36;;;;;;;4.53;2.60;;;13.20;78.70;;;;;;5016529;28;20120;-85
2023/04/22 01:29:03;;;;;;;5.03;2.90;;;13.20;78.70;;;;;;5016568;28;20044;-84
2023/04/22 01:31:29;;;;;;;6.28;2.90;;;13.20;78.70;;;;;;5016085;28;20474;-84
2023/04/22 01:33:55;;;;;;;5.05;2.88;;;13.20;78.70;;;;;;5016277;28;20509;-85
2023/04/22 01:36:20;;;;;;;5.30;2.67;;;13.20;78.70;;;;;;5016201;28;20026;-85
2023/04/22 01:38:46;;;;;;;5.28;3.00;;;13.20;78.70;;;;;;5016355;28;20124;-85
2023/04/22 01:41:13;;;;;;;4.93;2.97;;;13.20;78.70;;;;;;5016111;28;20018;-85
2023/04/22 01:43:39;;;;;;;3.88;2.50;;;13.20;78.70;;;;;;5016212;28;20030;-85
2023/04/22 01:46:05;;;;;;;4.60;2.80;;;13.20;78.70;;;;;;5016184;28;20119;-84
2023/04/22 01:48:30;;;;;;;4.88;2.90;;;13.20;78.70;;;;;;5016454;28;20483;-84
2023/04/22 01:50:56;;;;;;;4.95;2.83;;;13.20;78.70;;;;;;5015661;28;20127;-84
2023/04/22 01:53:21;;;;;;;5.00;2.85;;;13.20;79.30;;;;;;5015979;28;20029;-85
2023/04/22 01:55:47;;;;;;;4.85;2.80;;;13.20;78.70;;;;;;5015944;28;20017;-84
2023/04/22 01:58:13;;;;;;;4.45;2.72;;;13.20;78.70;;;;;;5015748;28;20033;-85
2023/04/22 02:00:38;;;;;;;4.75;2.65;;;13.20;78.70;;;;;;5015689;28;20020;-85
2023/04/22 02:03:04;;;;;;;5.63;2.97;;;13.20;78.70;;;;;;5016071;28;20080;-85
2023/04/22 02:05:29;;;;;;;4.70;2.75;;;13.20;78.70;;;;;;5015767;28;20075;-84
2023/04/22 02:07:55;;;;;;;4.90;3.05;;;13.20;78.70;;;;;;5015374;28;20025;-84
2023/04/22 02:10:21;;;;;;;5.18;2.78;;;13.20;78.70;;;;;;5015402;28;20025;-83
2023/04/22 02:12:46;;;;;;;4.65;2.80;;;13.20;78.80;;;;;;5015664;28;20034;-84
2023/04/22 02:15:12;;;;;;;5.53;3.03;;;13.20;78.70;;;;;;5015353;28;20026;-84
2023/04/22 02:17:38;;;;;;;4.72;3.08;;;13.20;78.70;;;;;;5015031;28;20458;-84
2023/04/22 02:20:04;;;;;;;5.65;2.90;;;13.20;78.70;;;;;;5015455;28;20184;-83
2023/04/22 02:22:31;;;;;;;4.63;2.83;;;13.20;78.80;;;;;;5033239;28;20517;-84
2023/04/22 02:24:56;;;;;;;4.13;2.72;;;13.20;78.80;;;;;;5015473;28;20033;-85
2023/04/22 02:27:22;;;;;;;4.47;2.80;;;13.20;78.80;;;;;;5015443;28;20029;-85
2023/04/22 02:29:47;;;;;;;5.55;2.88;;;13.20;78.70;;;;;;5015235;28;20063;-84
2023/04/22 02:32:15;;;;;;;4.72;2.80;;;13.20;78.80;;;;;;5015195;28;20041;-85
2023/04/22 02:34:41;;;;;;;4.22;2.70;;;13.20;78.80;;;;;;5015341;28;20018;-84
2023/04/22 02:37:07;;;;;;;4.35;2.60;;;13.20;78.80;;;;;;5015297;28;20032;-84
2023/04/22 02:39:32;;;;;;;5.10;2.92;;;13.20;78.80;;;;;;5015172;28;20026;-85
2023/04/22 02:41:58;;;;;;;5.00;2.90;;;13.20;78.80;;;;;;5013073;28;20462;-84
2023/04/22 02:44:23;;;;;;;4.90;2.92;;;13.20;78.80;;;;;;5014929;28;20052;-85
2023/04/22 02:46:49;;;;;;;5.25;3.17;;;13.20;78.80;;;;;;5015010;28;20520;-85
2023/04/22 02:49:14;;;;;;;3.90;2.47;;;13.20;78.80;;;;;;5015022;28;20078;-84
2023/04/22 02:51:40;;;;;;;4.55;2.80;;;13.20;78.80;;;;;;5014837;28;20040;-85
2023/04/22 02:54:05;;;;;;;4.78;2.88;;;13.20;78.80;;;;;;5014911;28;20025;-84
2023/04/22 02:56:31;;;;;;;4.70;2.90;;;13.20;78.80;;;;;;5015138;28;20375;-85
2023/04/22 02:58:56;;;;;;;4.45;2.70;;;13.20;78.80;;;;;;5015097;28;20429;-85
2023/04/22 03:01:22;;;;;;;4.40;2.70;;;13.20;78.80;;;;;;5014859;28;20056;-84
2023/04/22 03:03:47;;;;;;;4.50;2.80;;;13.20;78.80;;;;;;5014889;28;20029;-85
2023/04/22 03:06:13;;;;;;;4.70;3.05;;;13.20;78.80;;;;;;5032468;28;20088;-85
2023/04/22 03:08:38;;;;;;;4.70;2.85;;;13.20;78.80;;;;;;5032212;28;20438;-85
2023/04/22 03:11:04;;;;;;;4.95;2.80;;;13.20;78.80;;;;;;5014685;28;20516;-84
2023/04/22 03:13:29;;;;;;;4.53;2.70;;;13.20;78.80;;;;;;5014669;28;20072;-84
2023/04/22 03:15:55;;;;;;;5.20;2.92;;;13.20;78.80;;;;;;5014819;28;20086;-85
2023/04/22 03:18:20;;;;;;;4.22;2.65;;;13.20;78.80;;;;;;5032624;28;20029;-84
2023/04/22 03:20:46;;;;;;;5.13;2.90;;;13.20;78.80;;;;;;5032072;28;20040;-85
2023/04/22 03:23:11;;;;;;;5.03;2.78;;;13.20;78.80;;;;;;5014842;28;20115;-84
2023/04/22 03:25:37;;;;;;;4.63;2.70;;;13.10;78.80;;;;;;5014679;28;20032;-85
2023/04/22 03:28:03;;;;;;;5.93;3.10;;;13.20;78.80;;;;;;5016829;28;20032;-85
2023/04/22 03:30:28;;;;;;;4.60;2.97;;;13.20;78.80;;;;;;5018404;28;20056;-83
2023/04/22 03:32:55;;;;;;;4.43;2.90;;;13.20;78.80;;;;;;5018663;28;20041;-85
2023/04/22 03:35:20;;;;;;;4.55;2.80;;;13.10;78.70;;;;;;5036182;28;20025;-85
2023/04/22 03:37:46;;;;;;;4.65;3.10;;;13.20;78.80;;;;;;5036196;28;20028;-85
2023/04/22 03:40:12;;;;;;;4.65;2.65;;;13.20;78.80;;;;;;5018765;28;20385;-84
2023/04/22 03:42:37;;;;;;;4.55;2.88;;;13.20;78.80;;;;;;5036151;28;20028;-84
2023/04/22 03:45:03;;;;;;;4.93;2.90;;;13.10;78.80;;;;;;5036230;28;20473;-85
2023/04/22 03:47:28;;;;;;;5.22;2.72;;;13.20;78.80;;;;;;5036080;28;20036;-85
2023/04/22 03:49:54;;;;;;;4.45;2.78;;;13.20;78.80;;;;;;5018282;28;20555;-85
2023/04/22 03:52:19;;;;;;;5.40;3.20;;;13.20;78.90;;;;;;5017978;28;20036;-85
2023/04/22 03:54:45;;;;;;;4.80;3.00;;;13.20;78.90;;;;;;5018234;28;20021;-85
2023/04/22 03:57:10;;;;;;;4.43;2.72;;;13.20;78.80;;;;;;5018131;28;20029;-85
2023/04/22 03:59:36;;;;;;;5.85;3.17;;;13.20;78.80;;;;;;5018073;28;20490;-85
2023/04/22 04:02:01;;;;;;;4.25;2.70;;;13.20;78.90;;;;;;5017979;28;20067;-85
2023/04/22 04:04:28;;;;;;;4.00;2.55;;;13.20;78.80;;;;;;5018148;28;20387;-85
2023/04/22 04:06:54;;;;;;;4.50;2.80;;;13.10;78.80;;;;;;5017697;28;20391;-84
2023/04/22 04:09:19;;;;;;;5.13;3.10;;;13.20;78.80;;;;;;5017952;28;20074;-85
2023/04/22 04:11:45;;;;;;;4.90;2.85;;;13.20;78.80;;;;;;5035375;28;20108;-85
2023/04/22 04:14:10;;;;;;;3.97;2.60;;;13.20;78.80;;;;;;5017836;28;20033;-84
2023/04/22 04:16:36;;;;;;;4.38;2.78;;;13.20;78.80;;;;;;5017688;28;20025;-85
2023/04/22 04:19:02;;;;;;;4.93;3.05;;;13.20;78.90;;;;;;5017815;28;20030;-84
2023/04/22 04:21:28;;;;;;;5.10;3.03;;;13.10;78.80;;;;;;5017581;28;20030;-84
2023/04/22 04:23:54;;;;;;;4.90;2.90;;;13.20;78.80;;;;;;5035408;28;20101;-85
2023/04/22 04:26:19;;;;;;;4.50;2.70;;;13.20;78.80;;;;;;5017921;28;20030;-85
2023/04/22 04:28:46;;;;;;;4.88;2.95;;;13.20;78.80;;;;;;5017566;28;20023;-85
2023/04/22 04:31:11;;;;;;;5.45;3.00;;;13.20;78.80;;;;;;5017204;28;20060;-84
2023/04/22 04:33:38;;;;;;;4.63;2.92;;;13.20;78.80;;;;;;5017553;28;20065;-84
2023/04/22 04:36:03;;;;;;;4.95;3.05;;;13.20;78.90;;;;;;5017470;28;20435;-85
2023/04/22 04:38:29;;;;;;;5.50;3.10;;;13.20;78.80;;;;;;5016673;28;20017;-85
2023/04/22 04:40:55;;;;;;;5.20;3.00;;;13.10;78.80;;;;;;5016232;28;20367;-84
2023/04/22 04:43:24;;;;;;;4.60;2.90;;;13.20;78.80;;;;;;5014058;28;20049;-85
2023/04/22 04:45:50;;;;;;;4.82;2.80;;;13.20;78.80;;;;;;4997588;28;20514;-85
2023/04/22 04:48:18;;;;;;;5.38;2.80;;;13.20;78.80;;;;;;4997685;28;20030;-85
2023/04/22 04:50:44;;;;;;;4.90;3.00;;;13.20;78.90;;;;;;4997371;28;20506;-86
2023/04/22 04:53:11;;;;;;;4.93;3.08;;;13.20;78.90;;;;;;5013125;28;20029;-85
2023/04/22 04:55:37;;;;;;;5.03;2.67;;;13.20;78.90;;;;;;5017090;28;20568;-85
2023/04/22 04:58:03;;;;;;;5.25;3.10;;;13.20;78.80;;;;;;5016898;28;20029;-85
2023/04/22 05:00:28;;;;;;;4.97;2.92;;;13.20;78.90;;;;;;5016639;28;20464;-84
2023/04/22 05:02:54;;;;;;;4.47;3.00;;;13.20;78.90;;;;;;5017076;28;20028;-86
2023/04/22 05:05:19;;;;;;;5.20;2.90;;;13.20;78.80;;;;;;5017426;28;20029;-85
2023/04/22 05:07:45;;;;;;;5.10;3.13;;;13.20;78.90;;;;;;5016634;28;20032;-85
2023/04/22 05:10:10;;;;;;;4.65;2.95;;;13.20;79.40;;;;;;5016681;28;20067;-83
2023/04/22 05:12:36;;;;;;;4.60;2.90;;;13.20;78.90;;;;;;5034502;28;20026;-85
2023/04/22 05:15:02;;;;;;;5.18;3.05;;;13.20;78.90;;;;;;5016741;28;20513;-85
2023/04/22 05:17:27;;;;;;;5.25;2.95;;;13.20;78.90;;;;;;5016824;28;20521;-84
2023/04/22 05:19:53;;;;;;;4.35;2.85;;;13.20;78.90;;;;;;5016484;28;20029;-84
2023/04/22 05:22:19;;;;;;;4.47;2.80;;;13.20;78.90;;;;;;5016545;28;20022;-84
2023/04/22 05:24:47;;;;;;;5.78;3.28;;;13.20;78.90;;;;;;5014715;28;20032;-85
2023/04/22 05:27:13;;;;;;;5.50;3.38;;;13.20;78.90;;;;;;5013091;28;20549;-85
2023/04/22 05:29:38;;;;;;;5.15;2.83;;;13.20;78.90;;;;;;5012287;28;20021;-84
2023/04/22 05:32:05;;;;;;;5.38;3.25;;;13.20;78.90;;;;;;5014193;28;20140;-84
2023/04/22 05:34:31;;;;;;;5.18;3.05;;;13.20;78.90;;;;;;5013628;28;20037;-84
2023/04/22 05:36:56;;;;;;;4.70;3.00;;;13.10;78.80;;;;;;5031586;28;20051;-84
2023/04/22 05:39:22;;;;;;;5.28;3.10;;;13.10;78.80;;;;;;5013568;28;20032;-84
2023/04/22 05:41:47;;;;;;;4.97;2.90;;;13.20;78.90;;;;;;5013353;28;20433;-84
2023/04/22 05:44:13;;;;;;;4.60;2.90;;;13.70;79.20;;;;;;5013752;28;20025;-84
2023/04/22 05:46:38;;;;;;;4.75;2.95;;;13.20;78.80;;;;;;5013722;28;20025;-83
2023/04/22 05:49:04;;;;;;;5.03;3.08;;;13.20;78.90;;;;;;5013890;28;20033;-84
2023/04/22 05:51:30;;;;;;;4.95;3.28;;;13.20;78.90;;;;;;5013097;28;20037;-84
2023/04/22 05:53:55;;;;;;;6.50;3.30;;;13.20;78.80;;;;;;5013732;28;20035;-84
2023/04/22 05:56:21;;;;;;;4.70;2.83;;;13.20;78.80;;;;;;5013699;28;20029;-84
2023/04/22 05:58:46;;;;;;;5.05;3.10;;;13.20;78.80;;;;;;5013630;28;20053;-85
2023/04/22 06:01:13;;;;;;;5.18;2.80;;;13.20;78.80;;;;;;5013460;28;20060;-86
2023/04/22 06:03:38;;;;;;;4.97;3.00;;;13.10;78.80;;;;;;5013111;28;20029;-84
2023/04/22 06:06:05;;;;;;;5.13;3.08;;;13.20;78.90;;;;;;5012908;28;20036;-85
2023/04/22 06:08:31;;;;;;;5.45;3.10;;;13.10;78.70;;;;;;5012861;28;20405;-84
2023/04/22 06:10:56;;;;;;;5.90;3.45;;;13.20;78.70;;;;;;5012090;28;20084;-84
2023/04/22 06:13:22;;;;;;;5.63;3.03;;;13.20;78.70;;;;;;5012130;28;20025;-85
2023/04/22 06:15:47;;;;;;;5.75;3.13;;;13.20;78.70;;;;;;5012335;28;20021;-85
2023/04/22 06:18:13;;;;;;;5.00;3.20;;;13.20;78.70;;;;;;5012329;28;20053;-86
2023/04/22 06:20:39;;;;;;;5.05;2.92;;;13.20;78.70;;;;;;5029688;28;20033;-84
2023/04/22 06:23:04;;;;;;;4.78;2.97;;;13.20;78.70;;;;;;5012111;28;20056;-84
2023/04/22 06:25:30;;;;;;;5.50;2.97;;;13.20;78.70;;;;;;5030100;28;20036;-84
2023/04/22 06:27:59;;;;;;;4.90;2.90;;;13.20;78.70;;;;;;5011904;28;20448;-84
2023/04/22 06:30:26;;;;;;;4.32;2.85;;;13.20;78.70;;;;;;5029237;28;20757;-83
2023/04/22 06:32:53;;;;;;;4.72;3.15;;;13.20;78.70;;;;;;5012044;28;20053;-84
2023/04/22 06:35:20;;;;;;;4.63;2.85;;;13.30;78.70;;;;;;5011790;28;20030;-84
2023/04/22 06:37:45;;;;;;;5.03;3.00;;;13.30;78.70;;;;;;5012167;28;20025;-84
2023/04/22 06:40:14;;;;;;;4.53;2.72;;;13.30;78.70;;;;;;5011828;28;20525;-82
2023/04/22 06:42:39;;;;;;;4.57;2.78;;;13.30;78.70;;;;;;5009463;28;20036;-83
2023/04/22 06:45:08;;;;;;;5.57;2.97;;;13.30;78.70;;;;;;5011875;28;20022;-84
2023/04/22 06:47:33;;;;;;;7.50;3.13;;;13.30;78.70;;;;;;5011617;28;20026;-83
2023/04/22 06:50:00;;;;;;;5.53;3.10;;;13.20;78.60;;;;;;5012222;28;20026;-83
2023/04/22 06:52:25;;;;;;;5.78;3.03;;;13.30;78.70;;;;;;5029134;28;20064;-83
2023/04/22 06:54:51;;;;;;;4.90;2.90;;;13.30;78.60;;;;;;5011763;28;20101;-83
2023/04/22 06:57:16;;;;;;;6.13;3.28;;;13.30;78.70;;;;;;5011603;28;20017;-82
2023/04/22 06:59:42;;;;;;;5.90;3.00;;;13.30;78.60;;;;;;5011701;28;20489;-82
2023/04/22 07:02:07;;;;;;;5.38;3.10;;;13.30;78.60;;;;;;5010733;28;20033;-83
2023/04/22 07:04:33;;;;;;;6.38;3.30;;;13.30;78.60;;;;;;5011790;28;20140;-82
2023/04/22 07:06:58;;;;;;;6.07;3.20;;;13.30;78.60;;;;;;5011529;28;20029;-83
2023/04/22 07:09:24;;;;;;;5.35;2.92;;;13.30;78.60;;;;;;5011616;28;20060;-83
2023/04/22 07:11:49;;;;;;;6.25;3.20;;;13.30;78.50;;;;;;5011222;28;20029;-82
2023/04/22 07:14:15;;;;;;;4.97;2.95;;;13.30;78.50;;;;;;5011238;28;20025;-82
2023/04/22 07:16:40;;;;;;;4.53;2.95;;;13.40;78.50;;;;;;5011515;28;20063;-83
2023/04/22 07:19:06;;;;;;;5.40;3.10;;;13.40;78.50;;;;;;5011595;28;20478;-83
2023/04/22 07:21:32;;;;;;;4.15;2.72;;;13.40;78.40;;;;;;5024876;28;20033;-85
2023/04/22 07:23:57;;;;;;;4.55;2.80;;;13.40;78.40;;;;;;5031273;28;20029;-84
2023/04/22 07:26:33;;;;;;;4.80;2.83;;;13.40;78.30;;;;;;5031447;28;20409;-86
2023/04/22 07:32:14;;;;;;;4.20;2.67;;;13.50;78.20;;;;;;4973303;28;20127;-82
2023/04/22 07:34:42;;;;;;;4.78;2.63;;;14.10;78.60;;;;;;5010847;28;20037;-82
2023/04/22 07:37:11;;;;;;;3.92;2.50;;;13.70;78.20;;;;;;5010235;28;20494;-83
2023/04/22 07:39:36;;;;;;;4.88;3.00;;;13.60;78.10;;;;;;5011140;28;20490;-82
2023/04/22 07:42:02;;;;;;;4.13;2.80;;;13.60;77.90;;;;;;5010599;28;20022;-81
2023/04/22 07:44:28;;;;;;;4.78;2.83;;;13.60;77.90;;;;;;5011855;28;20036;-83
2023/04/22 07:46:59;;;;;;;4.32;2.65;;;13.50;77.60;;;;;;5011250;28;20033;-82
2023/04/22 07:49:31;;;;;;;5.78;2.90;;;13.60;77.60;;;;;;5011429;28;20029;-83
2023/04/22 07:51:56;;;;;;;4.78;2.85;;;13.60;77.60;;;;;;5010900;28;20041;-81
2023/04/22 07:54:31;;;;;;;4.90;3.10;;;13.00;77.20;;;;;;5011454;28;20374;-83
2023/04/22 07:57:37;;;;;;;6.57;3.00;;;13.60;77.50;;;;;;5011424;28;20017;-84
2023/04/22 08:00:25;;;;;;;4.50;2.78;;;13.60;77.70;;;;;;5010940;28;20509;-83
2023/04/22 08:03:00;;;;;;;4.50;2.70;;;13.60;77.60;;;;;;5011576;28;20033;-82
2023/04/22 08:05:26;;;;;;;4.65;2.78;;;13.60;77.80;;;;;;5011047;28;20561;-82
2023/04/22 08:07:51;;;;;;;4.05;2.60;;;13.60;77.70;;;;;;5011468;28;20120;-83
2023/04/22 08:10:17;;;;;;;4.07;2.60;;;13.70;77.50;;;;;;5011300;28;20033;-84
2023/04/22 08:12:42;;;;;;;4.50;2.70;;;13.80;77.30;;;;;;5010867;28;20044;-83
2023/04/22 08:15:40;;;;;;;5.15;3.08;;;13.80;77.10;;;;;;5015148;28;20025;-84
2023/04/22 08:18:14;;;;;;;4.60;2.70;;;13.80;77.30;;;;;;4955869;28;20491;-82
2023/04/22 08:20:40;;;;;;;4.30;2.70;;;13.80;77.30;;;;;;4969409;28;20146;-82
2023/04/22 08:23:06;;;;;;;4.60;2.60;;;13.90;77.40;;;;;;5025790;28;20119;-84
2023/04/22 08:25:34;;;;;;;4.50;2.92;;;13.90;77.30;;;;;;5054504;28;20063;-81
2023/04/22 08:38:59;;;;;;;4.45;2.70;;;13.90;77.10;;;;;;4970024;28;20110;-83
2023/04/22 08:44:07;;;;;;;5.43;2.83;;;14.00;77.00;;;;;;5117210;22;20142;-87
2023/04/22 08:46:33;;;;;;;4.90;2.97;;;14.00;77.00;;;;;;5056114;28;20315;-84
2023/04/22 08:49:55;;;;;;;5.82;2.85;;;14.00;76.90;;;;;;5054767;28;20477;-85
2023/04/22 14:16:50;;;;;;;7.50;2.63;;;14.50;78.30;;;;;;5009885;28;20052;-83
2023/04/22 14:19:17;;;;;;;6.85;2.40;;;14.50;78.30;;;;;;4992329;28;20021;-86
2023/04/22 14:21:43;;;;;;;6.53;2.83;;;14.60;78.40;;;;;;4990917;28;20524;-86
2023/04/22 14:24:08;;;;;;;7.18;2.85;;;14.50;78.40;;;;;;5009744;28;20108;-86
2023/04/22 14:26:34;;;;;;;8.52;2.92;;;14.50;78.40;;;;;;5010014;28;20034;-82
2023/04/22 14:29:00;;;;;;;8.80;3.00;;;14.50;78.40;;;;;;5009572;28;20026;-81
2023/04/22 14:31:25;;;;;;;5.55;2.40;;;14.50;78.40;;;;;;5009427;28;20078;-82
2023/04/22 14:33:51;;;;;;;7.40;2.55;;;14.60;78.40;;;;;;4991399;28;20025;-81
2023/04/22 14:36:17;;;;;;;5.90;2.70;;;14.60;78.40;;;;;;4989816;28;20668;-81
2023/04/22 14:38:44;;;;;;;6.18;2.47;;;14.50;78.40;;;;;;4989949;28;20022;-83
2023/04/22 14:41:11;;;;;;;5.68;2.67;;;14.50;78.40;;;;;;4989906;28;20542;-81
2023/04/22 14:43:36;;;;;;;6.93;2.67;;;14.50;78.50;;;;;;4998229;28;20033;-83
2023/04/22 14:48:47;;;;;;;6.05;2.30;;;14.50;78.50;;;;;;5000829;28;20047;-81
2023/04/22 14:51:12;;;;;;;6.55;2.40;;;14.50;78.60;;;;;;5007283;28;20026;-84
2023/04/22 14:53:39;;;;;;;5.93;2.88;;;14.50;78.60;;;;;;5014169;28;20025;-84
2023/04/22 14:56:05;;;;;;;5.63;2.33;;;14.50;78.60;;;;;;5014455;28;20049;-81
2023/04/22 14:58:30;;;;;;;8.25;2.67;;;14.50;78.60;;;;;;5033117;28;20052;-81
2023/04/22 15:00:58;;;;;;;5.13;2.30;;;14.50;78.70;;;;;;5033823;28;20071;-81
2023/04/22 15:03:24;;;;;;;5.68;2.88;;;14.40;78.60;;;;;;5034085;28;20025;-82
2023/04/22 15:05:51;;;;;;;6.22;2.30;;;14.40;78.60;;;;;;5034464;28;20091;-81
2023/04/22 15:08:17;;;;;;;6.45;2.50;;;14.40;78.70;;;;;;5033911;28;20108;-82
2023/04/22 15:10:42;;;;;;;6.45;2.35;;;14.40;78.60;;;;;;5018093;28;20116;-81
2023/04/22 15:13:08;;;;;;;5.13;2.30;;;14.50;78.80;;;;;;5012473;28;20026;-79
2023/04/22 15:15:33;;;;;;;5.65;2.10;;;14.40;78.60;;;;;;5034970;28;20033;-81
2023/04/22 15:17:59;;;;;;;6.10;2.22;;;14.40;78.60;;;;;;5035032;28;20028;-80
2023/04/22 15:20:25;;;;;;;6.28;2.85;;;14.40;78.60;;;;;;5028572;28;20022;-82
2023/04/22 15:22:50;;;;;;;6.63;2.17;;;14.30;78.60;;;;;;5022907;28;20025;-82
2023/04/22 15:25:16;;;;;;;4.75;1.92;;;14.40;78.70;;;;;;5025988;28;20018;-82
2023/04/22 15:27:42;;;;;;;4.43;2.20;;;14.40;78.70;;;;;;5011120;28;20026;-82
2023/04/22 15:30:09;;;;;;;4.53;1.90;;;14.40;79.20;;;;;;5044887;28;20029;-81
2023/04/22 15:32:37;;;;;;;4.88;2.10;;;14.40;78.70;;;;;;5043930;28;20033;-82
2023/04/22 15:35:05;;;;;;;6.05;2.78;;;14.40;78.80;;;;;;5041758;28;20025;-78
2023/04/22 15:37:30;;;;;;;4.25;2.00;;;14.40;78.80;;;;;;5041174;28;20104;-82
2023/04/22 15:39:57;;;;;;;4.75;2.10;;;14.40;78.70;;;;;;5056012;28;20543;-83
2023/04/22 15:42:22;;;;;;;4.25;2.20;;;14.40;78.70;;;;;;5038033;28;20021;-83
2023/04/22 15:44:48;;;;;;;4.93;2.50;;;14.40;78.80;;;;;;5042482;28;20124;-81
2023/04/22 15:47:15;;;;;;;5.00;1.90;;;14.40;78.90;;;;;;5043401;28;20092;-81
2023/04/22 15:49:41;;;;;;;5.25;2.17;;;14.40;78.90;;;;;;5040388;28;20021;-81
2023/04/22 15:52:06;;;;;;;5.25;2.42;;;14.40;78.90;;;;;;5061503;28;20039;-81
2023/04/22 15:54:32;;;;;;;3.83;2.00;;;14.40;78.90;;;;;;5061642;28;20021;-81
2023/04/22 15:56:57;;;;;;;5.25;2.15;;;14.40;78.90;;;;;;5061281;28;20384;-81
2023/04/22 15:59:23;;;;;;;4.35;2.20;;;14.30;78.90;;;;;;5042824;28;20377;-81
2023/04/22 16:01:48;;;;;;;5.07;2.45;;;14.40;79.00;;;;;;5042397;28;20381;-81
2023/04/22 16:04:14;;;;;;;4.45;2.10;;;14.30;79.00;;;;;;5041439;28;20036;-81
2023/04/22 16:06:39;;;;;;;4.95;2.05;;;14.40;79.00;;;;;;5060206;28;20029;-81
2023/04/22 16:09:05;;;;;;;6.15;2.20;;;14.30;79.00;;;;;;5059551;28;20017;-81
2023/04/22 16:11:31;;;;;;;4.03;1.70;;;14.30;79.00;;;;;;5040478;28;20381;-80
2023/04/22 16:13:56;;;;;;;4.55;2.03;;;14.30;79.10;;;;;;5063393;28;20024;-82
2023/04/22 16:16:22;;;;;;;5.75;2.38;;;14.30;79.20;;;;;;5062584;28;20553;-82
2023/04/22 16:18:48;;;;;;;4.95;2.15;;;14.30;79.10;;;;;;5062814;28;20045;-82
2023/04/22 16:21:14;;;;;;;4.30;1.98;;;14.30;79.10;;;;;;5044479;28;20021;-81
2023/04/22 16:23:39;;;;;;;4.63;2.20;;;14.30;79.20;;;;;;5044782;28;20021;-81
2023/04/22 16:26:05;;;;;;;3.55;1.83;;;14.30;79.30;;;;;;5039981;28;20017;-81
2023/04/22 16:28:31;;;;;;;3.95;2.03;;;14.30;79.30;;;;;;5039704;28;20044;-81
2023/04/22 16:30:56;;;;;;;3.88;1.98;;;14.30;79.30;;;;;;5043050;28;20024;-84
2023/04/22 16:33:23;;;;;;;3.67;1.83;;;14.30;79.40;;;;;;5057505;28;20074;-78
2023/04/22 16:35:48;;;;;;;5.18;2.30;;;14.30;79.30;;;;;;5039747;28;20017;-77
2023/04/22 16:38:14;;;;;;;4.75;2.30;;;14.30;79.30;;;;;;5041021;28;20066;-80
2023/04/22 16:40:39;;;;;;;4.53;2.20;;;14.30;79.40;;;;;;5042032;28;20017;-82
2023/04/22 16:43:06;;;;;;;3.63;2.00;;;14.20;79.40;;;;;;5042371;28;20016;-82
2023/04/22 16:45:31;;;;;;;3.83;1.95;;;14.30;79.50;;;;;;5042715;28;20021;-81
2023/04/22 16:47:57;;;;;;;4.93;2.45;;;14.30;79.40;;;;;;5056369;28;20039;-81
2023/04/22 16:50:23;;;;;;;3.65;2.00;;;14.30;79.40;;;;;;5057409;28;20100;-80
2023/04/22 16:52:49;;;;;;;7.78;4.68;;;14.30;79.40;;;;;;5059342;28;20047;-82
2023/04/22 16:55:14;;;;;;;50.97;39.25;;;14.30;79.40;;;;;;5042165;28;20021;-81
2023/04/22 16:57:40;;;;;;;52.33;39.50;;;14.30;79.40;;;;;;5059981;28;20020;-81
2023/04/22 17:00:06;;;;;;;45.75;35.15;;;14.30;79.60;;;;;;5059975;28;20458;-79
2023/04/22 17:02:32;;;;;;;52.60;41.47;;;14.30;79.70;;;;;;5059353;28;20042;-81
2023/04/22 17:04:59;;;;;;;48.78;36.53;;;14.30;79.70;;;;;;5040262;28;20439;-82
2023/04/22 17:07:25;;;;;;;54.60;41.58;;;14.30;79.70;;;;;;5039178;28;20017;-81
2023/04/22 17:09:50;;;;;;;63.83;49.20;;;14.20;79.80;;;;;;5057589;28;20491;-78
2023/04/22 17:12:16;;;;;;;57.28;43.08;;;14.20;79.80;;;;;;5059926;28;20024;-83
2023/04/22 17:14:41;;;;;;;65.30;51.28;;;14.20;79.80;;;;;;5041329;28;20122;-81
2023/04/22 17:17:07;;;;;;;59.28;46.35;;;14.20;79.80;;;;;;5032150;28;20071;-84
2023/04/22 17:19:32;;;;;;;53.55;43.22;;;14.20;79.80;;;;;;5021453;28;20017;-84
2023/04/22 17:22:00;;;;;;;54.50;42.72;;;14.30;79.90;;;;;;5020648;28;20017;-82
2023/04/22 17:24:25;;;;;;;50.88;39.08;;;14.20;79.90;;;;;;5020705;28;20022;-83
2023/04/22 17:26:51;;;;;;;53.65;39.08;;;14.20;79.90;;;;;;5038998;28;20104;-79
2023/04/22 17:29:20;;;;;;;46.15;37.58;;;14.20;80.00;;;;;;5035543;28;20127;-81
2023/04/22 17:31:46;;;;;;;49.38;37.42;;;14.20;79.90;;;;;;5013898;28;20026;-81
2023/04/22 17:34:12;;;;;;;46.75;35.83;;;14.20;79.90;;;;;;5018847;28;20029;-82
2023/04/22 17:36:37;;;;;;;46.22;36.65;;;14.20;79.90;;;;;;5019124;28;20017;-81
2023/04/22 17:39:03;;;;;;;43.33;34.72;;;14.20;80.00;;;;;;5020034;28;20024;-83
2023/04/22 17:41:28;;;;;;;44.13;35.65;;;14.20;80.00;;;;;;5019523;28;20022;-82
2023/04/22 17:43:54;;;;;;;42.53;33.22;;;14.20;80.00;;;;;;5037786;28;20036;-82
2023/04/22 17:46:19;;;;;;;42.65;32.90;;;14.30;80.00;;;;;;5018355;28;20033;-83
2023/04/22 17:48:45;;;;;;;40.83;32.67;;;14.20;80.00;;;;;;5018113;28;20080;-83
2023/04/22 17:51:12;;;;;;;41.42;32.85;;;14.20;80.00;;;;;;5017732;28;20104;-82
2023/04/22 17:53:39;;;;;;;41.00;32.75;;;14.20;80.00;;;;;;5017552;28;20027;-79
2023/04/22 17:56:05;;;;;;;40.25;31.85;;;14.20;80.00;;;;;;5019660;28;20025;-83
2023/04/22 17:58:30;;;;;;;39.47;32.20;;;14.20;80.00;;;;;;5019317;28;20024;-84
2023/04/22 18:00:57;;;;;;;38.28;30.88;;;14.10;80.00;;;;;;5035458;28;20063;-84
2023/04/22 18:03:23;;;;;;;39.00;31.73;;;14.20;80.00;;;;;;5016029;28;20022;-84
2023/04/22 18:05:48;;;;;;;38.72;31.17;;;14.20;80.10;;;;;;5016679;28;20511;-84
2023/04/22 18:08:14;;;;;;;37.55;30.55;;;14.20;80.00;;;;;;5016662;28;20052;-84
2023/04/22 18:10:39;;;;;;;38.33;30.70;;;14.20;80.00;;;;;;5033588;28;20381;-85
2023/04/22 18:13:05;;;;;;;38.85;30.33;;;14.20;80.00;;;;;;5016726;28;20032;-85
2023/04/22 18:15:31;;;;;;;36.75;29.83;;;14.20;80.10;;;;;;5016542;28;20022;-85
2023/04/22 18:17:56;;;;;;;37.55;29.70;;;14.20;80.10;;;;;;5034459;28;20033;-85
2023/04/22 18:20:22;;;;;;;37.08;29.85;;;14.20;80.10;;;;;;5016286;28;20581;-85
2023/04/22 18:22:50;;;;;;;36.65;29.48;;;14.20;80.10;;;;;;5016729;28;20112;-85
2023/04/22 18:25:16;;;;;;;34.70;28.35;;;14.20;80.10;;;;;;5016155;28;20381;-83